Aviation Digital Data Service (ADDS)

Output produced by METARs form (2231 UTC 19 April 2021)
found at http://aviationweather.gov/metar/data/
 
KOEO 192215Z AUTO 34008KT 10SM SCT036 BKN048 OVC065 03/M05 A3003 RMK AO2 T00261053